sensor_id;sensor_type;location;lat;lon;timestamp;P1;durP1;ratioP1;P2;durP2;ratioP2
26319;SDS011;14024;52.226;5.200;2024-03-08T00:01:49;64.32;;;25.73;;
26319;SDS011;14024;52.226;5.200;2024-03-08T00:04:14;61.70;;;25.15;;
26319;SDS011;14024;52.226;5.200;2024-03-08T00:06:40;70.47;;;26.67;;
26319;SDS011;14024;52.226;5.200;2024-03-08T00:09:07;60.13;;;26.60;;
26319;SDS011;14024;52.226;5.200;2024-03-08T00:11:35;68.25;;;26.08;;
26319;SDS011;14024;52.226;5.200;2024-03-08T00:14:00;70.95;;;26.48;;
26319;SDS011;14024;52.226;5.200;2024-03-08T00:16:26;62.35;;;25.75;;
26319;SDS011;14024;52.226;5.200;2024-03-08T00:18:52;52.30;;;24.20;;
26319;SDS011;14024;52.226;5.200;2024-03-08T00:21:17;64.38;;;26.52;;
26319;SDS011;14024;52.226;5.200;2024-03-08T00:23:43;59.72;;;25.15;;
26319;SDS011;14024;52.226;5.200;2024-03-08T00:26:08;64.70;;;25.70;;
26319;SDS011;14024;52.226;5.200;2024-03-08T00:28:34;62.65;;;26.40;;
26319;SDS011;14024;52.226;5.200;2024-03-08T00:31:00;55.40;;;25.55;;
26319;SDS011;14024;52.226;5.200;2024-03-08T00:33:25;60.33;;;25.77;;
26319;SDS011;14024;52.226;5.200;2024-03-08T00:35:52;66.05;;;24.95;;
26319;SDS011;14024;52.226;5.200;2024-03-08T00:38:18;62.65;;;27.63;;
26319;SDS011;14024;52.226;5.200;2024-03-08T00:40:43;64.13;;;26.20;;
26319;SDS011;14024;52.226;5.200;2024-03-08T00:43:09;63.47;;;27.60;;
26319;SDS011;14024;52.226;5.200;2024-03-08T00:45:34;57.25;;;26.50;;
26319;SDS011;14024;52.226;5.200;2024-03-08T00:47:59;60.25;;;25.95;;
26319;SDS011;14024;52.226;5.200;2024-03-08T00:50:25;60.53;;;25.02;;
26319;SDS011;14024;52.226;5.200;2024-03-08T00:52:50;63.17;;;25.48;;
26319;SDS011;14024;52.226;5.200;2024-03-08T00:55:16;59.50;;;25.08;;
26319;SDS011;14024;52.226;5.200;2024-03-08T00:57:41;55.63;;;24.95;;
26319;SDS011;14024;52.226;5.200;2024-03-08T01:00:07;62.58;;;25.83;;
26319;SDS011;14024;52.226;5.200;2024-03-08T01:02:34;66.80;;;26.17;;
26319;SDS011;14024;52.226;5.200;2024-03-08T01:05:00;62.15;;;26.00;;
26319;SDS011;14024;52.226;5.200;2024-03-08T01:07:27;61.00;;;27.42;;
26319;SDS011;14024;52.226;5.200;2024-03-08T01:09:52;55.03;;;25.10;;
26319;SDS011;14024;52.226;5.200;2024-03-08T01:12:17;59.63;;;26.30;;
26319;SDS011;14024;52.226;5.200;2024-03-08T01:14:43;71.68;;;25.13;;
26319;SDS011;14024;52.226;5.200;2024-03-08T01:17:08;62.72;;;25.52;;
26319;SDS011;14024;52.226;5.200;2024-03-08T01:19:34;64.07;;;26.40;;
26319;SDS011;14024;52.226;5.200;2024-03-08T01:22:00;60.65;;;26.10;;
26319;SDS011;14024;52.226;5.200;2024-03-08T01:24:25;64.05;;;27.02;;
26319;SDS011;14024;52.226;5.200;2024-03-08T01:26:50;61.60;;;25.90;;
26319;SDS011;14024;52.226;5.200;2024-03-08T01:29:16;62.42;;;25.98;;
26319;SDS011;14024;52.226;5.200;2024-03-08T01:31:41;64.47;;;25.63;;
26319;SDS011;14024;52.226;5.200;2024-03-08T01:34:06;58.33;;;24.88;;
26319;SDS011;14024;52.226;5.200;2024-03-08T01:36:32;61.22;;;26.60;;
26319;SDS011;14024;52.226;5.200;2024-03-08T01:38:57;60.03;;;26.00;;
26319;SDS011;14024;52.226;5.200;2024-03-08T01:41:22;62.60;;;26.15;;
26319;SDS011;14024;52.226;5.200;2024-03-08T01:43:48;63.42;;;27.55;;
26319;SDS011;14024;52.226;5.200;2024-03-08T01:46:15;64.70;;;27.25;;
26319;SDS011;14024;52.226;5.200;2024-03-08T01:48:44;59.28;;;25.27;;
26319;SDS011;14024;52.226;5.200;2024-03-08T01:51:09;55.78;;;25.45;;
26319;SDS011;14024;52.226;5.200;2024-03-08T01:53:37;61.88;;;25.73;;
26319;SDS011;14024;52.226;5.200;2024-03-08T01:56:03;61.50;;;26.35;;
26319;SDS011;14024;52.226;5.200;2024-03-08T01:58:30;60.50;;;25.23;;
26319;SDS011;14024;52.226;5.200;2024-03-08T02:00:56;61.42;;;26.70;;
26319;SDS011;14024;52.226;5.200;2024-03-08T02:03:23;58.17;;;26.33;;
26319;SDS011;14024;52.226;5.200;2024-03-08T02:05:48;59.08;;;26.42;;
26319;SDS011;14024;52.226;5.200;2024-03-08T02:08:14;62.72;;;26.80;;
26319;SDS011;14024;52.226;5.200;2024-03-08T02:10:41;60.03;;;27.38;;
26319;SDS011;14024;52.226;5.200;2024-03-08T02:13:07;69.22;;;27.70;;
26319;SDS011;14024;52.226;5.200;2024-03-08T02:18:26;66.90;;;26.27;;
26319;SDS011;14024;52.226;5.200;2024-03-08T02:20:54;66.35;;;26.52;;
26319;SDS011;14024;52.226;5.200;2024-03-08T02:23:20;66.53;;;27.38;;
26319;SDS011;14024;52.226;5.200;2024-03-08T02:25:46;60.38;;;26.33;;
26319;SDS011;14024;52.226;5.200;2024-03-08T02:28:14;65.25;;;26.95;;
26319;SDS011;14024;52.226;5.200;2024-03-08T02:30:40;58.95;;;26.98;;
26319;SDS011;14024;52.226;5.200;2024-03-08T02:33:06;61.97;;;26.40;;
26319;SDS011;14024;52.226;5.200;2024-03-08T02:35:32;57.50;;;25.88;;
26319;SDS011;14024;52.226;5.200;2024-03-08T02:37:58;65.05;;;27.02;;
26319;SDS011;14024;52.226;5.200;2024-03-08T02:40:24;65.72;;;26.67;;
26319;SDS011;14024;52.226;5.200;2024-03-08T02:42:49;64.70;;;28.15;;
26319;SDS011;14024;52.226;5.200;2024-03-08T02:45:15;62.65;;;27.08;;
26319;SDS011;14024;52.226;5.200;2024-03-08T02:47:40;60.10;;;26.85;;
26319;SDS011;14024;52.226;5.200;2024-03-08T02:50:06;67.32;;;26.90;;
26319;SDS011;14024;52.226;5.200;2024-03-08T02:52:33;67.03;;;27.42;;
26319;SDS011;14024;52.226;5.200;2024-03-08T02:55:00;59.55;;;27.08;;
26319;SDS011;14024;52.226;5.200;2024-03-08T02:57:26;58.50;;;27.42;;
26319;SDS011;14024;52.226;5.200;2024-03-08T02:59:53;62.30;;;27.02;;
26319;SDS011;14024;52.226;5.200;2024-03-08T03:02:18;66.28;;;27.05;;
26319;SDS011;14024;52.226;5.200;2024-03-08T03:04:44;61.08;;;25.65;;
26319;SDS011;14024;52.226;5.200;2024-03-08T03:07:09;68.40;;;28.33;;
26319;SDS011;14024;52.226;5.200;2024-03-08T03:09:34;65.82;;;27.23;;
26319;SDS011;14024;52.226;5.200;2024-03-08T03:12:00;68.80;;;27.35;;
26319;SDS011;14024;52.226;5.200;2024-03-08T03:14:25;60.75;;;27.13;;
26319;SDS011;14024;52.226;5.200;2024-03-08T03:16:52;61.70;;;26.77;;
26319;SDS011;14024;52.226;5.200;2024-03-08T03:19:17;70.45;;;27.38;;
26319;SDS011;14024;52.226;5.200;2024-03-08T03:21:43;57.58;;;26.60;;
26319;SDS011;14024;52.226;5.200;2024-03-08T03:24:08;65.38;;;27.73;;
26319;SDS011;14024;52.226;5.200;2024-03-08T03:26:37;62.47;;;27.17;;
26319;SDS011;14024;52.226;5.200;2024-03-08T03:29:06;59.15;;;26.02;;
26319;SDS011;14024;52.226;5.200;2024-03-08T03:31:33;64.93;;;27.08;;
26319;SDS011;14024;52.226;5.200;2024-03-08T03:33:59;60.08;;;26.77;;
26319;SDS011;14024;52.226;5.200;2024-03-08T03:36:27;65.32;;;28.30;;
26319;SDS011;14024;52.226;5.200;2024-03-08T03:38:53;66.40;;;26.80;;
26319;SDS011;14024;52.226;5.200;2024-03-08T03:41:30;69.90;;;28.30;;
26319;SDS011;14024;52.226;5.200;2024-03-08T03:43:55;66.78;;;28.08;;
26319;SDS011;14024;52.226;5.200;2024-03-08T03:46:21;59.00;;;26.30;;
26319;SDS011;14024;52.226;5.200;2024-03-08T03:48:46;67.25;;;28.27;;
26319;SDS011;14024;52.226;5.200;2024-03-08T03:51:11;64.88;;;27.70;;
26319;SDS011;14024;52.226;5.200;2024-03-08T03:53:37;66.55;;;28.20;;
26319;SDS011;14024;52.226;5.200;2024-03-08T03:56:02;63.08;;;27.08;;
26319;SDS011;14024;52.226;5.200;2024-03-08T03:58:31;65.50;;;29.00;;
26319;SDS011;14024;52.226;5.200;2024-03-08T04:00:57;58.88;;;27.50;;
26319;SDS011;14024;52.226;5.200;2024-03-08T04:03:22;64.60;;;27.83;;
26319;SDS011;14024;52.226;5.200;2024-03-08T04:05:48;64.82;;;27.73;;
26319;SDS011;14024;52.226;5.200;2024-03-08T04:08:13;60.35;;;28.40;;
26319;SDS011;14024;52.226;5.200;2024-03-08T04:10:39;65.90;;;27.67;;
26319;SDS011;14024;52.226;5.200;2024-03-08T04:13:06;62.90;;;27.52;;
26319;SDS011;14024;52.226;5.200;2024-03-08T04:15:32;64.40;;;27.33;;
26319;SDS011;14024;52.226;5.200;2024-03-08T04:17:57;67.25;;;28.45;;
26319;SDS011;14024;52.226;5.200;2024-03-08T04:20:22;63.47;;;28.02;;
26319;SDS011;14024;52.226;5.200;2024-03-08T04:22:48;67.30;;;28.60;;
26319;SDS011;14024;52.226;5.200;2024-03-08T04:25:14;64.20;;;28.08;;
26319;SDS011;14024;52.226;5.200;2024-03-08T04:27:40;66.15;;;28.85;;
26319;SDS011;14024;52.226;5.200;2024-03-08T04:30:05;63.88;;;28.10;;
26319;SDS011;14024;52.226;5.200;2024-03-08T04:32:35;61.17;;;26.98;;
26319;SDS011;14024;52.226;5.200;2024-03-08T04:35:01;64.85;;;29.30;;
26319;SDS011;14024;52.226;5.200;2024-03-08T04:37:26;62.75;;;27.80;;
26319;SDS011;14024;52.226;5.200;2024-03-08T04:39:54;63.20;;;28.88;;
26319;SDS011;14024;52.226;5.200;2024-03-08T04:42:20;66.45;;;29.00;;
26319;SDS011;14024;52.226;5.200;2024-03-08T04:44:45;66.10;;;28.85;;
26319;SDS011;14024;52.226;5.200;2024-03-08T04:47:11;61.13;;;28.55;;
26319;SDS011;14024;52.226;5.200;2024-03-08T04:49:36;58.88;;;27.70;;
26319;SDS011;14024;52.226;5.200;2024-03-08T04:52:02;67.25;;;29.05;;
26319;SDS011;14024;52.226;5.200;2024-03-08T04:54:29;63.05;;;28.15;;
26319;SDS011;14024;52.226;5.200;2024-03-08T04:56:55;69.00;;;28.98;;
26319;SDS011;14024;52.226;5.200;2024-03-08T04:59:20;63.90;;;29.55;;
26319;SDS011;14024;52.226;5.200;2024-03-08T05:01:46;65.93;;;28.98;;
26319;SDS011;14024;52.226;5.200;2024-03-08T05:04:12;72.18;;;30.58;;
26319;SDS011;14024;52.226;5.200;2024-03-08T05:06:38;63.55;;;29.38;;
26319;SDS011;14024;52.226;5.200;2024-03-08T05:09:03;65.93;;;29.83;;
26319;SDS011;14024;52.226;5.200;2024-03-08T05:11:47;69.50;;;28.83;;
26319;SDS011;14024;52.226;5.200;2024-03-08T05:14:13;63.22;;;27.77;;
26319;SDS011;14024;52.226;5.200;2024-03-08T05:16:45;61.67;;;28.90;;
26319;SDS011;14024;52.226;5.200;2024-03-08T05:19:14;72.03;;;30.67;;
26319;SDS011;14024;52.226;5.200;2024-03-08T05:21:42;69.43;;;29.33;;
26319;SDS011;14024;52.226;5.200;2024-03-08T05:24:08;70.47;;;29.27;;
26319;SDS011;14024;52.226;5.200;2024-03-08T05:26:35;71.07;;;30.38;;
26319;SDS011;14024;52.226;5.200;2024-03-08T05:29:00;70.28;;;30.80;;
26319;SDS011;14024;52.226;5.200;2024-03-08T05:31:25;63.67;;;29.33;;
26319;SDS011;14024;52.226;5.200;2024-03-08T05:33:51;70.80;;;30.73;;
26319;SDS011;14024;52.226;5.200;2024-03-08T05:36:19;67.80;;;29.38;;
26319;SDS011;14024;52.226;5.200;2024-03-08T05:38:44;70.05;;;29.10;;
26319;SDS011;14024;52.226;5.200;2024-03-08T05:41:10;66.28;;;29.08;;
26319;SDS011;14024;52.226;5.200;2024-03-08T05:43:37;60.83;;;28.90;;
26319;SDS011;14024;52.226;5.200;2024-03-08T05:46:03;63.92;;;29.42;;
26319;SDS011;14024;52.226;5.200;2024-03-08T05:48:29;63.72;;;28.83;;
26319;SDS011;14024;52.226;5.200;2024-03-08T05:51:04;67.43;;;28.98;;
26319;SDS011;14024;52.226;5.200;2024-03-08T05:53:30;61.90;;;28.98;;
26319;SDS011;14024;52.226;5.200;2024-03-08T05:55:56;66.93;;;29.88;;
26319;SDS011;14024;52.226;5.200;2024-03-08T05:58:23;64.53;;;29.50;;
26319;SDS011;14024;52.226;5.200;2024-03-08T06:00:48;69.88;;;29.80;;
26319;SDS011;14024;52.226;5.200;2024-03-08T06:03:15;69.88;;;29.73;;
26319;SDS011;14024;52.226;5.200;2024-03-08T06:05:44;71.57;;;30.05;;
26319;SDS011;14024;52.226;5.200;2024-03-08T06:08:10;64.43;;;28.65;;
26319;SDS011;14024;52.226;5.200;2024-03-08T06:10:36;68.47;;;29.85;;
26319;SDS011;14024;52.226;5.200;2024-03-08T06:13:02;71.38;;;30.48;;
26319;SDS011;14024;52.226;5.200;2024-03-08T06:15:28;67.43;;;28.15;;
26319;SDS011;14024;52.226;5.200;2024-03-08T06:17:53;71.32;;;31.67;;
26319;SDS011;14024;52.226;5.200;2024-03-08T06:20:19;74.47;;;31.13;;
26319;SDS011;14024;52.226;5.200;2024-03-08T06:22:44;69.32;;;31.23;;
26319;SDS011;14024;52.226;5.200;2024-03-08T06:25:13;63.08;;;29.17;;
26319;SDS011;14024;52.226;5.200;2024-03-08T06:27:40;68.07;;;29.38;;
26319;SDS011;14024;52.226;5.200;2024-03-08T06:30:07;67.43;;;29.90;;
26319;SDS011;14024;52.226;5.200;2024-03-08T06:32:34;64.50;;;30.35;;
26319;SDS011;14024;52.226;5.200;2024-03-08T06:35:03;68.18;;;29.83;;
26319;SDS011;14024;52.226;5.200;2024-03-08T06:37:31;72.75;;;29.70;;
26319;SDS011;14024;52.226;5.200;2024-03-08T06:40:00;70.22;;;30.50;;
26319;SDS011;14024;52.226;5.200;2024-03-08T06:42:28;74.45;;;31.75;;
26319;SDS011;14024;52.226;5.200;2024-03-08T06:44:54;68.60;;;29.98;;
26319;SDS011;14024;52.226;5.200;2024-03-08T06:47:24;65.40;;;29.80;;
26319;SDS011;14024;52.226;5.200;2024-03-08T06:49:50;72.05;;;32.60;;
26319;SDS011;14024;52.226;5.200;2024-03-08T06:52:17;66.72;;;30.30;;
26319;SDS011;14024;52.226;5.200;2024-03-08T06:54:42;68.43;;;30.08;;
26319;SDS011;14024;52.226;5.200;2024-03-08T06:57:07;61.45;;;29.60;;
26319;SDS011;14024;52.226;5.200;2024-03-08T06:59:35;67.70;;;30.17;;
26319;SDS011;14024;52.226;5.200;2024-03-08T07:02:04;65.85;;;29.25;;
26319;SDS011;14024;52.226;5.200;2024-03-08T07:04:30;65.25;;;29.92;;
26319;SDS011;14024;52.226;5.200;2024-03-08T07:06:58;73.43;;;31.17;;
26319;SDS011;14024;52.226;5.200;2024-03-08T07:09:24;62.22;;;29.50;;
26319;SDS011;14024;52.226;5.200;2024-03-08T07:11:50;63.53;;;29.73;;
26319;SDS011;14024;52.226;5.200;2024-03-08T07:14:21;68.60;;;30.35;;
26319;SDS011;14024;52.226;5.200;2024-03-08T07:16:47;67.40;;;29.85;;
26319;SDS011;14024;52.226;5.200;2024-03-08T07:19:12;61.53;;;30.88;;
26319;SDS011;14024;52.226;5.200;2024-03-08T07:21:37;68.25;;;30.40;;
26319;SDS011;14024;52.226;5.200;2024-03-08T07:24:03;64.47;;;29.58;;
26319;SDS011;14024;52.226;5.200;2024-03-08T07:26:44;73.55;;;31.42;;
26319;SDS011;14024;52.226;5.200;2024-03-08T07:29:14;66.28;;;29.67;;
26319;SDS011;14024;52.226;5.200;2024-03-08T07:31:39;69.10;;;29.92;;
26319;SDS011;14024;52.226;5.200;2024-03-08T07:34:15;72.47;;;30.67;;
26319;SDS011;14024;52.226;5.200;2024-03-08T07:36:41;69.82;;;29.23;;
26319;SDS011;14024;52.226;5.200;2024-03-08T07:39:10;65.00;;;30.75;;
26319;SDS011;14024;52.226;5.200;2024-03-08T07:41:38;66.93;;;30.63;;
26319;SDS011;14024;52.226;5.200;2024-03-08T07:44:07;69.90;;;30.35;;
26319;SDS011;14024;52.226;5.200;2024-03-08T07:46:32;73.40;;;31.15;;
26319;SDS011;14024;52.226;5.200;2024-03-08T07:48:59;64.93;;;30.85;;
26319;SDS011;14024;52.226;5.200;2024-03-08T07:51:25;66.50;;;30.77;;
26319;SDS011;14024;52.226;5.200;2024-03-08T07:53:50;65.57;;;29.75;;
26319;SDS011;14024;52.226;5.200;2024-03-08T07:56:17;68.55;;;30.75;;
26319;SDS011;14024;52.226;5.200;2024-03-08T07:58:43;66.80;;;30.85;;
26319;SDS011;14024;52.226;5.200;2024-03-08T08:01:16;70.57;;;31.38;;
26319;SDS011;14024;52.226;5.200;2024-03-08T08:03:42;69.35;;;32.30;;
26319;SDS011;14024;52.226;5.200;2024-03-08T08:06:07;68.13;;;31.02;;
26319;SDS011;14024;52.226;5.200;2024-03-08T08:08:32;71.80;;;30.65;;
26319;SDS011;14024;52.226;5.200;2024-03-08T08:10:58;69.45;;;31.77;;
26319;SDS011;14024;52.226;5.200;2024-03-08T08:13:24;66.57;;;30.85;;
26319;SDS011;14024;52.226;5.200;2024-03-08T08:15:49;67.78;;;30.90;;
26319;SDS011;14024;52.226;5.200;2024-03-08T08:18:15;63.10;;;30.75;;
26319;SDS011;14024;52.226;5.200;2024-03-08T08:20:40;67.78;;;29.48;;
26319;SDS011;14024;52.226;5.200;2024-03-08T08:23:06;62.20;;;29.67;;
26319;SDS011;14024;52.226;5.200;2024-03-08T08:25:31;67.75;;;30.52;;
26319;SDS011;14024;52.226;5.200;2024-03-08T08:27:59;63.38;;;29.40;;
26319;SDS011;14024;52.226;5.200;2024-03-08T08:30:24;67.18;;;31.08;;
26319;SDS011;14024;52.226;5.200;2024-03-08T08:32:50;66.47;;;30.52;;
26319;SDS011;14024;52.226;5.200;2024-03-08T08:35:15;62.50;;;30.63;;
26319;SDS011;14024;52.226;5.200;2024-03-08T08:37:41;62.10;;;29.80;;
26319;SDS011;14024;52.226;5.200;2024-03-08T08:40:07;63.42;;;30.30;;
26319;SDS011;14024;52.226;5.200;2024-03-08T08:42:39;60.70;;;29.77;;
26319;SDS011;14024;52.226;5.200;2024-03-08T08:45:05;62.95;;;30.08;;
26319;SDS011;14024;52.226;5.200;2024-03-08T08:47:35;64.80;;;29.92;;
26319;SDS011;14024;52.226;5.200;2024-03-08T08:50:01;60.88;;;29.65;;
26319;SDS011;14024;52.226;5.200;2024-03-08T08:52:26;66.68;;;30.55;;
26319;SDS011;14024;52.226;5.200;2024-03-08T08:54:51;65.82;;;29.85;;
26319;SDS011;14024;52.226;5.200;2024-03-08T08:57:17;65.10;;;29.73;;
26319;SDS011;14024;52.226;5.200;2024-03-08T08:59:42;61.55;;;30.65;;
26319;SDS011;14024;52.226;5.200;2024-03-08T09:02:08;63.78;;;29.83;;
26319;SDS011;14024;52.226;5.200;2024-03-08T09:04:34;66.03;;;30.40;;
26319;SDS011;14024;52.226;5.200;2024-03-08T09:07:00;61.15;;;29.83;;
26319;SDS011;14024;52.226;5.200;2024-03-08T09:09:27;60.65;;;28.83;;
26319;SDS011;14024;52.226;5.200;2024-03-08T09:11:52;60.42;;;29.70;;
26319;SDS011;14024;52.226;5.200;2024-03-08T09:14:19;61.80;;;29.02;;
26319;SDS011;14024;52.226;5.200;2024-03-08T09:16:45;64.72;;;29.95;;
26319;SDS011;14024;52.226;5.200;2024-03-08T09:19:12;59.67;;;28.83;;
26319;SDS011;14024;52.226;5.200;2024-03-08T09:21:37;62.83;;;29.25;;
26319;SDS011;14024;52.226;5.200;2024-03-08T09:24:05;64.60;;;30.45;;
26319;SDS011;14024;52.226;5.200;2024-03-08T09:26:31;66.35;;;31.55;;
26319;SDS011;14024;52.226;5.200;2024-03-08T09:28:58;63.22;;;28.65;;
26319;SDS011;14024;52.226;5.200;2024-03-08T09:31:23;60.97;;;29.25;;
26319;SDS011;14024;52.226;5.200;2024-03-08T09:33:49;58.72;;;29.10;;
26319;SDS011;14024;52.226;5.200;2024-03-08T09:36:15;66.90;;;29.52;;
26319;SDS011;14024;52.226;5.200;2024-03-08T09:38:41;53.92;;;27.65;;
26319;SDS011;14024;52.226;5.200;2024-03-08T09:41:06;58.30;;;29.10;;
26319;SDS011;14024;52.226;5.200;2024-03-08T09:43:31;59.85;;;29.90;;
26319;SDS011;14024;52.226;5.200;2024-03-08T09:45:57;57.55;;;29.58;;
26319;SDS011;14024;52.226;5.200;2024-03-08T09:48:23;60.25;;;28.77;;
26319;SDS011;14024;52.226;5.200;2024-03-08T09:50:48;54.35;;;27.30;;
26319;SDS011;14024;52.226;5.200;2024-03-08T09:53:14;55.10;;;27.25;;
26319;SDS011;14024;52.226;5.200;2024-03-08T09:55:40;60.25;;;28.83;;
26319;SDS011;14024;52.226;5.200;2024-03-08T09:58:11;54.50;;;26.38;;
26319;SDS011;14024;52.226;5.200;2024-03-08T10:00:46;55.58;;;26.98;;
26319;SDS011;14024;52.226;5.200;2024-03-08T10:03:12;52.25;;;26.45;;
26319;SDS011;14024;52.226;5.200;2024-03-08T10:05:39;55.00;;;27.17;;
26319;SDS011;14024;52.226;5.200;2024-03-08T10:08:05;55.70;;;27.98;;
26319;SDS011;14024;52.226;5.200;2024-03-08T10:10:33;57.25;;;27.73;;
26319;SDS011;14024;52.226;5.200;2024-03-08T10:12:59;55.58;;;27.33;;
26319;SDS011;14024;52.226;5.200;2024-03-08T10:15:26;52.47;;;27.95;;
26319;SDS011;14024;52.226;5.200;2024-03-08T10:17:55;51.75;;;26.77;;
26319;SDS011;14024;52.226;5.200;2024-03-08T10:20:21;57.65;;;28.10;;
26319;SDS011;14024;52.226;5.200;2024-03-08T10:22:48;51.95;;;25.85;;
26319;SDS011;14024;52.226;5.200;2024-03-08T10:25:14;50.67;;;25.25;;
26319;SDS011;14024;52.226;5.200;2024-03-08T10:27:40;47.88;;;24.73;;
26319;SDS011;14024;52.226;5.200;2024-03-08T10:30:10;52.72;;;25.95;;
26319;SDS011;14024;52.226;5.200;2024-03-08T10:32:38;51.15;;;26.02;;
26319;SDS011;14024;52.226;5.200;2024-03-08T10:35:04;53.88;;;26.15;;
26319;SDS011;14024;52.226;5.200;2024-03-08T10:37:29;56.60;;;27.30;;
26319;SDS011;14024;52.226;5.200;2024-03-08T10:40:15;56.80;;;27.45;;
26319;SDS011;14024;52.226;5.200;2024-03-08T10:42:52;52.80;;;27.00;;
26319;SDS011;14024;52.226;5.200;2024-03-08T10:47:50;50.50;;;26.20;;
26319;SDS011;14024;52.226;5.200;2024-03-08T10:50:24;47.47;;;24.20;;
26319;SDS011;14024;52.226;5.200;2024-03-08T10:52:51;53.88;;;24.92;;
26319;SDS011;14024;52.226;5.200;2024-03-08T10:55:18;51.90;;;25.40;;
26319;SDS011;14024;52.226;5.200;2024-03-08T10:57:45;51.58;;;24.40;;
26319;SDS011;14024;52.226;5.200;2024-03-08T11:00:12;48.97;;;25.02;;
26319;SDS011;14024;52.226;5.200;2024-03-08T11:02:39;47.20;;;23.23;;
26319;SDS011;14024;52.226;5.200;2024-03-08T11:08:00;47.65;;;25.08;;
26319;SDS011;14024;52.226;5.200;2024-03-08T11:10:26;48.65;;;25.45;;
26319;SDS011;14024;52.226;5.200;2024-03-08T11:12:53;49.17;;;25.02;;
26319;SDS011;14024;52.226;5.200;2024-03-08T11:15:18;48.03;;;24.33;;
26319;SDS011;14024;52.226;5.200;2024-03-08T11:17:47;40.67;;;21.77;;
26319;SDS011;14024;52.226;5.200;2024-03-08T11:20:17;42.55;;;23.33;;
26319;SDS011;14024;52.226;5.200;2024-03-08T11:22:49;39.88;;;22.17;;
26319;SDS011;14024;52.226;5.200;2024-03-08T11:25:35;41.80;;;22.45;;
26319;SDS011;14024;52.226;5.200;2024-03-08T11:28:10;46.13;;;23.55;;
26319;SDS011;14024;52.226;5.200;2024-03-08T11:30:47;47.92;;;23.40;;
26319;SDS011;14024;52.226;5.200;2024-03-08T11:33:36;42.42;;;22.83;;
26319;SDS011;14024;52.226;5.200;2024-03-08T11:36:22;39.88;;;20.33;;
26319;SDS011;14024;52.226;5.200;2024-03-08T11:38:49;39.10;;;21.42;;
26319;SDS011;14024;52.226;5.200;2024-03-08T11:41:18;44.47;;;22.45;;
26319;SDS011;14024;52.226;5.200;2024-03-08T11:43:46;46.40;;;23.83;;
26319;SDS011;14024;52.226;5.200;2024-03-08T11:46:12;42.13;;;22.33;;
26319;SDS011;14024;52.226;5.200;2024-03-08T11:48:41;38.55;;;21.40;;
26319;SDS011;14024;52.226;5.200;2024-03-08T11:51:11;38.65;;;21.10;;
26319;SDS011;14024;52.226;5.200;2024-03-08T11:53:40;44.70;;;23.77;;
26319;SDS011;14024;52.226;5.200;2024-03-08T11:56:06;41.65;;;22.77;;
26319;SDS011;14024;52.226;5.200;2024-03-08T11:58:34;39.08;;;21.27;;
26319;SDS011;14024;52.226;5.200;2024-03-08T12:01:05;39.47;;;21.92;;
26319;SDS011;14024;52.226;5.200;2024-03-08T12:03:33;40.95;;;21.30;;
26319;SDS011;14024;52.226;5.200;2024-03-08T12:05:59;35.08;;;19.85;;
26319;SDS011;14024;52.226;5.200;2024-03-08T12:08:28;40.50;;;21.50;;
26319;SDS011;14024;52.226;5.200;2024-03-08T12:10:55;41.88;;;20.23;;
26319;SDS011;14024;52.226;5.200;2024-03-08T12:13:27;41.25;;;19.48;;
26319;SDS011;14024;52.226;5.200;2024-03-08T12:15:57;42.63;;;21.23;;
26319;SDS011;14024;52.226;5.200;2024-03-08T12:18:27;40.00;;;21.70;;
26319;SDS011;14024;52.226;5.200;2024-03-08T12:21:08;37.60;;;20.48;;
26319;SDS011;14024;52.226;5.200;2024-03-08T12:23:35;35.38;;;18.80;;
26319;SDS011;14024;52.226;5.200;2024-03-08T12:26:09;36.58;;;20.45;;
26319;SDS011;14024;52.226;5.200;2024-03-08T12:28:39;38.85;;;19.70;;
26319;SDS011;14024;52.226;5.200;2024-03-08T12:31:06;38.63;;;20.15;;
26319;SDS011;14024;52.226;5.200;2024-03-08T12:33:37;39.78;;;20.42;;
26319;SDS011;14024;52.226;5.200;2024-03-08T12:36:24;39.17;;;19.02;;
26319;SDS011;14024;52.226;5.200;2024-03-08T12:38:50;38.42;;;19.95;;
26319;SDS011;14024;52.226;5.200;2024-03-08T12:41:19;36.33;;;20.08;;
26319;SDS011;14024;52.226;5.200;2024-03-08T12:43:46;40.20;;;20.02;;
26319;SDS011;14024;52.226;5.200;2024-03-08T12:46:14;34.45;;;18.33;;
26319;SDS011;14024;52.226;5.200;2024-03-08T12:48:40;36.90;;;18.48;;
26319;SDS011;14024;52.226;5.200;2024-03-08T12:51:08;35.65;;;18.15;;
26319;SDS011;14024;52.226;5.200;2024-03-08T12:53:35;33.60;;;19.02;;
26319;SDS011;14024;52.226;5.200;2024-03-08T12:56:00;36.40;;;19.60;;
26319;SDS011;14024;52.226;5.200;2024-03-08T12:58:26;33.15;;;19.50;;
26319;SDS011;14024;52.226;5.200;2024-03-08T13:00:51;35.38;;;19.63;;
26319;SDS011;14024;52.226;5.200;2024-03-08T13:03:17;35.17;;;20.13;;
26319;SDS011;14024;52.226;5.200;2024-03-08T13:05:45;39.08;;;20.15;;
26319;SDS011;14024;52.226;5.200;2024-03-08T13:08:10;35.47;;;20.52;;
26319;SDS011;14024;52.226;5.200;2024-03-08T13:10:38;35.50;;;19.10;;
26319;SDS011;14024;52.226;5.200;2024-03-08T13:13:05;36.80;;;20.10;;
26319;SDS011;14024;52.226;5.200;2024-03-08T13:15:30;35.58;;;20.08;;
26319;SDS011;14024;52.226;5.200;2024-03-08T13:17:55;36.97;;;20.00;;
26319;SDS011;14024;52.226;5.200;2024-03-08T13:20:25;38.40;;;20.83;;
26319;SDS011;14024;52.226;5.200;2024-03-08T13:22:53;37.97;;;20.60;;
26319;SDS011;14024;52.226;5.200;2024-03-08T13:25:18;37.65;;;21.15;;
26319;SDS011;14024;52.226;5.200;2024-03-08T13:27:45;37.60;;;21.13;;
26319;SDS011;14024;52.226;5.200;2024-03-08T13:30:11;36.50;;;20.15;;
26319;SDS011;14024;52.226;5.200;2024-03-08T13:32:43;40.75;;;20.55;;
26319;SDS011;14024;52.226;5.200;2024-03-08T13:35:09;41.92;;;20.50;;
26319;SDS011;14024;52.226;5.200;2024-03-08T13:37:38;43.40;;;19.92;;
26319;SDS011;14024;52.226;5.200;2024-03-08T13:40:07;39.20;;;21.40;;
26319;SDS011;14024;52.226;5.200;2024-03-08T13:42:37;37.92;;;20.33;;
26319;SDS011;14024;52.226;5.200;2024-03-08T13:45:04;35.75;;;20.48;;
26319;SDS011;14024;52.226;5.200;2024-03-08T13:47:32;34.75;;;20.08;;
26319;SDS011;14024;52.226;5.200;2024-03-08T13:49:57;35.67;;;20.40;;
26319;SDS011;14024;52.226;5.200;2024-03-08T13:52:23;37.20;;;21.02;;
26319;SDS011;14024;52.226;5.200;2024-03-08T13:54:50;38.13;;;20.23;;
26319;SDS011;14024;52.226;5.200;2024-03-08T13:57:16;37.08;;;20.60;;
26319;SDS011;14024;52.226;5.200;2024-03-08T13:59:43;37.13;;;20.50;;
26319;SDS011;14024;52.226;5.200;2024-03-08T14:02:08;38.53;;;20.45;;
26319;SDS011;14024;52.226;5.200;2024-03-08T14:04:38;39.03;;;20.23;;
26319;SDS011;14024;52.226;5.200;2024-03-08T14:07:04;40.33;;;21.65;;
26319;SDS011;14024;52.226;5.200;2024-03-08T14:09:33;35.97;;;21.40;;
26319;SDS011;14024;52.226;5.200;2024-03-08T14:12:02;36.25;;;21.15;;
26319;SDS011;14024;52.226;5.200;2024-03-08T14:14:32;39.00;;;20.38;;
26319;SDS011;14024;52.226;5.200;2024-03-08T14:17:00;38.67;;;21.02;;
26319;SDS011;14024;52.226;5.200;2024-03-08T14:19:26;38.63;;;21.33;;
26319;SDS011;14024;52.226;5.200;2024-03-08T14:21:52;38.53;;;21.08;;
26319;SDS011;14024;52.226;5.200;2024-03-08T14:24:19;34.38;;;19.73;;
26319;SDS011;14024;52.226;5.200;2024-03-08T14:26:45;36.33;;;20.33;;
26319;SDS011;14024;52.226;5.200;2024-03-08T14:29:13;35.78;;;20.52;;